Time;durP1;ratioP1;P1;durP2;ratioP2;P2;SDS_P1;SDS_P2;PMS_P1;PMS_P2;Temp;Humidity;BMP_temperature;BMP_pressure;BME280_temperature;BME280_humidity;BME280_pressure;Samples;Min_cycle;Max_cycle;Signal;HPM_P1;HPM_P2
2021/04/07 00:00:50;;;;;;;7.03;1.70;;;3.00;69.60;;;;;;5012691;28;20050;-72
2021/04/07 00:03:15;;;;;;;5.60;1.83;;;3.10;69.70;;;;;;5018088;28;20050;-72
2021/04/07 00:05:43;;;;;;;5.93;1.38;;;3.00;69.70;;;;;;5012083;28;20474;-72
2021/04/07 00:08:09;;;;;;;4.35;1.23;;;3.00;69.70;;;;;;5013645;28;20505;-72
2021/04/07 00:10:41;;;;;;;5.55;1.48;;;3.00;69.60;;;;;;5012827;28;20111;-72
2021/04/07 00:13:07;;;;;;;11.10;2.10;;;3.00;69.80;;;;;;5012042;28;20085;-72
2021/04/07 00:15:34;;;;;;;9.13;2.38;;;3.00;69.90;;;;;;5011928;28;20042;-73
2021/04/07 00:18:00;;;;;;;6.45;1.20;;;3.00;70.00;;;;;;4996346;28;20049;-72
2021/04/07 00:20:26;;;;;;;7.28;1.30;;;3.00;70.00;;;;;;5011832;28;20038;-73
2021/04/07 00:22:52;;;;;;;6.22;1.05;;;2.90;70.10;;;;;;5013816;28;20172;-72
2021/04/07 00:25:19;;;;;;;6.82;1.30;;;3.00;70.20;;;;;;5012480;28;20483;-73
2021/04/07 00:27:52;;;;;;;4.70;1.50;;;3.00;70.20;;;;;;4995476;28;20069;-72
2021/04/07 00:30:19;;;;;;;7.35;1.73;;;3.00;70.40;;;;;;4999354;28;20066;-72
2021/04/07 00:32:45;;;;;;;5.68;0.93;;;3.00;70.60;;;;;;5014836;28;20052;-72
2021/04/07 00:35:11;;;;;;;8.73;1.10;;;3.00;70.70;;;;;;5033284;28;20045;-72
2021/04/07 00:37:37;;;;;;;6.32;1.42;;;3.00;70.80;;;;;;5014575;28;20441;-72
2021/04/07 00:40:05;;;;;;;6.20;1.00;;;3.00;70.90;;;;;;5033165;28;20057;-72
2021/04/07 00:42:37;;;;;;;5.88;1.15;;;3.00;71.10;;;;;;5030201;28;20053;-72
2021/04/07 00:45:05;;;;;;;9.10;1.50;;;3.00;71.20;;;;;;5031739;28;20052;-71
2021/04/07 00:47:31;;;;;;;5.57;1.00;;;3.00;71.20;;;;;;5030908;28;20390;-72
2021/04/07 00:49:57;;;;;;;8.60;1.90;;;3.00;71.30;;;;;;5031712;28;20096;-72
2021/04/07 00:52:23;;;;;;;3.47;0.88;;;3.00;71.30;;;;;;5032702;28;20049;-71
2021/04/07 00:54:50;;;;;;;5.38;1.30;;;3.00;71.40;;;;;;5032141;28;20038;-72
2021/04/07 00:57:15;;;;;;;6.00;1.27;;;3.00;71.30;;;;;;5003176;28;20438;-72
2021/04/07 00:59:41;;;;;;;7.28;1.35;;;3.00;71.50;;;;;;5010986;28;20102;-72
2021/04/07 01:02:07;;;;;;;6.55;1.60;;;3.00;71.50;;;;;;5011799;28;20105;-72
2021/04/07 01:04:33;;;;;;;5.50;1.35;;;3.00;71.60;;;;;;4978561;28;20129;-72
2021/04/07 01:06:58;;;;;;;5.20;1.08;;;3.00;71.40;;;;;;5012925;28;20538;-72
2021/04/07 01:09:24;;;;;;;5.00;1.02;;;3.00;71.50;;;;;;5024202;28;20045;-72
2021/04/07 01:11:50;;;;;;;7.28;1.35;;;3.00;71.50;;;;;;5030571;28;20042;-72
2021/04/07 01:14:16;;;;;;;6.95;1.13;;;3.00;71.60;;;;;;5032445;28;20061;-72
2021/04/07 01:16:42;;;;;;;5.13;1.20;;;3.00;71.70;;;;;;5030571;28;20045;-72
2021/04/07 01:19:08;;;;;;;4.40;0.93;;;3.00;71.90;;;;;;5031141;28;20121;-72
2021/04/07 01:21:35;;;;;;;5.28;1.38;;;3.00;71.90;;;;;;5031462;28;20049;-72
2021/04/07 01:24:01;;;;;;;3.97;1.20;;;3.00;71.80;;;;;;5031337;28;20042;-71
2021/04/07 01:26:26;;;;;;;6.72;1.05;;;2.90;72.00;;;;;;4998824;28;20057;-71
2021/04/07 01:28:52;;;;;;;8.23;1.17;;;3.00;72.00;;;;;;5010813;28;20371;-71
2021/04/07 01:31:18;;;;;;;6.85;1.45;;;3.00;72.00;;;;;;5012870;28;20143;-72
2021/04/07 01:33:44;;;;;;;5.35;1.33;;;3.00;72.00;;;;;;5010777;28;20417;-71
2021/04/07 01:36:10;;;;;;;8.80;1.48;;;3.00;72.00;;;;;;5011647;28;20054;-71
2021/04/07 01:38:36;;;;;;;6.03;1.20;;;3.00;72.20;;;;;;4994715;28;20545;-71
2021/04/07 01:41:02;;;;;;;3.92;0.82;;;3.00;72.10;;;;;;5013091;28;20100;-72
2021/04/07 01:43:28;;;;;;;6.55;1.48;;;3.00;73.00;;;;;;5013325;28;20041;-72
2021/04/07 01:45:53;;;;;;;5.05;0.80;;;3.00;72.30;;;;;;5012383;28;20048;-72
2021/04/07 01:48:20;;;;;;;4.57;0.90;;;2.90;72.20;;;;;;5011240;28;20356;-73
2021/04/07 01:50:47;;;;;;;6.47;1.17;;;2.90;72.40;;;;;;5010689;28;20112;-72
2021/04/07 01:53:13;;;;;;;2.65;0.80;;;3.00;72.50;;;;;;5011091;28;20074;-71
2021/04/07 01:55:39;;;;;;;4.15;0.73;;;2.90;72.50;;;;;;5010680;28;20046;-71
2021/04/07 01:58:05;;;;;;;3.03;0.70;;;3.00;72.50;;;;;;5011320;28;20107;-73
2021/04/07 02:00:31;;;;;;;5.25;0.82;;;3.00;72.60;;;;;;5012842;28;20037;-71
2021/04/07 02:02:57;;;;;;;3.38;0.63;;;2.90;72.60;;;;;;5010866;28;20042;-72
2021/04/07 02:05:22;;;;;;;4.20;0.70;;;3.00;72.80;;;;;;5012555;28;20073;-71
2021/04/07 02:07:48;;;;;;;2.40;0.70;;;3.00;72.80;;;;;;5011583;28;20470;-71
2021/04/07 02:10:14;;;;;;;1.25;0.30;;;3.00;72.80;;;;;;5011361;28;20045;-71
2021/04/07 02:12:40;;;;;;;1.77;0.47;;;3.00;72.80;;;;;;5011482;28;20395;-71
2021/04/07 02:15:12;;;;;;;3.67;0.52;;;3.00;72.90;;;;;;5011000;28;20105;-72
2021/04/07 02:17:38;;;;;;;5.80;0.80;;;3.00;72.90;;;;;;4994247;28;20041;-71
2021/04/07 02:20:05;;;;;;;3.28;0.60;;;3.00;72.90;;;;;;5012348;28;20103;-71
2021/04/07 02:22:31;;;;;;;2.75;0.88;;;2.90;72.90;;;;;;5012262;28;20049;-71
2021/04/07 02:24:56;;;;;;;2.78;0.52;;;3.00;73.10;;;;;;5011690;28;20123;-71
2021/04/07 02:27:23;;;;;;;3.22;0.70;;;3.00;73.20;;;;;;5011254;28;20038;-72
2021/04/07 02:29:53;;;;;;;2.85;0.52;;;3.00;73.30;;;;;;5011661;28;20490;-72
2021/04/07 02:32:19;;;;;;;4.25;0.57;;;3.00;73.30;;;;;;5012683;28;20061;-71
2021/04/07 02:34:45;;;;;;;4.32;0.70;;;3.00;73.40;;;;;;5011553;28;20046;-70
2021/04/07 02:37:14;;;;;;;3.13;0.47;;;3.00;73.60;;;;;;5010640;28;20052;-71
2021/04/07 02:39:41;;;;;;;2.53;0.50;;;3.00;73.60;;;;;;5010203;28;20119;-72
2021/04/07 02:42:07;;;;;;;3.00;0.60;;;3.00;73.60;;;;;;5010954;28;20050;-72
2021/04/07 02:44:32;;;;;;;2.67;0.57;;;3.00;73.70;;;;;;5011328;28;20046;-72
2021/04/07 02:46:58;;;;;;;3.50;0.60;;;3.00;73.80;;;;;;5024768;28;20158;-71
2021/04/07 02:49:27;;;;;;;3.60;1.10;;;3.00;73.80;;;;;;5012051;28;20092;-72
2021/04/07 02:51:54;;;;;;;3.65;0.77;;;3.10;74.00;;;;;;5009590;28;20050;-71
2021/04/07 02:54:21;;;;;;;4.43;0.57;;;3.10;74.10;;;;;;5029686;28;20087;-70
2021/04/07 02:56:47;;;;;;;3.00;0.70;;;3.00;73.90;;;;;;5030872;28;20037;-71
2021/04/07 02:59:12;;;;;;;3.40;0.68;;;3.10;74.10;;;;;;5031796;28;20452;-72
2021/04/07 03:01:39;;;;;;;4.10;0.80;;;3.10;74.20;;;;;;5031669;28;20470;-71
2021/04/07 03:04:05;;;;;;;7.20;0.70;;;3.10;74.50;;;;;;5031694;28;20108;-71
2021/04/07 03:06:30;;;;;;;2.58;0.90;;;3.10;74.40;;;;;;5036265;28;20049;-70
2021/04/07 03:08:58;;;;;;;3.30;0.50;;;3.10;74.50;;;;;;5035304;28;20041;-71
2021/04/07 03:11:25;;;;;;;2.25;0.65;;;3.10;74.50;;;;;;5034630;28;20053;-72
2021/04/07 03:13:51;;;;;;;4.00;0.70;;;3.20;74.60;;;;;;5023015;28;20077;-71
2021/04/07 03:16:16;;;;;;;4.18;0.77;;;3.20;74.70;;;;;;5014666;28;20431;-71
2021/04/07 03:18:42;;;;;;;3.15;0.60;;;3.20;74.80;;;;;;5015534;28;20498;-71
2021/04/07 03:21:08;;;;;;;3.72;0.73;;;3.20;74.80;;;;;;5015814;28;20058;-71
2021/04/07 03:23:34;;;;;;;2.28;0.52;;;3.20;75.00;;;;;;5014901;28;20053;-69
2021/04/07 03:25:59;;;;;;;1.60;0.60;;;3.20;75.00;;;;;;5015349;28;20045;-71
2021/04/07 03:28:25;;;;;;;3.00;0.52;;;3.20;75.10;;;;;;5014910;28;20046;-70
2021/04/07 03:30:51;;;;;;;3.60;0.98;;;3.20;75.10;;;;;;5015525;28;20402;-71
2021/04/07 03:33:31;;;;;;;4.38;0.63;;;3.20;75.10;;;;;;5015884;28;20050;-70
2021/04/07 03:35:58;;;;;;;3.35;1.00;;;3.20;75.10;;;;;;5014040;28;20050;-69
2021/04/07 03:38:24;;;;;;;2.88;0.57;;;3.20;75.20;;;;;;5014773;28;20113;-70
2021/04/07 03:40:49;;;;;;;2.67;0.80;;;3.20;75.30;;;;;;5014156;28;20134;-71
2021/04/07 03:43:16;;;;;;;3.00;0.75;;;3.20;75.30;;;;;;5016088;28;20491;-71
2021/04/07 03:45:43;;;;;;;2.97;0.60;;;3.20;75.30;;;;;;5016313;28;20088;-70
2021/04/07 03:48:13;;;;;;;2.00;0.80;;;3.20;75.30;;;;;;5013941;28;20454;-70
2021/04/07 03:50:42;;;;;;;3.22;1.00;;;3.20;75.30;;;;;;5016223;28;20482;-70
2021/04/07 03:53:09;;;;;;;1.50;0.63;;;3.20;75.40;;;;;;4997834;28;20045;-70
2021/04/07 03:55:35;;;;;;;0.82;0.40;;;3.30;75.50;;;;;;5014578;28;20061;-70
2021/04/07 03:58:01;;;;;;;1.25;0.60;;;3.20;75.30;;;;;;5014856;28;20046;-70
2021/04/07 04:00:28;;;;;;;2.90;0.60;;;3.30;75.50;;;;;;5015710;28;20042;-71
2021/04/07 04:02:53;;;;;;;1.88;0.60;;;3.30;75.50;;;;;;5014585;28;20442;-71
2021/04/07 04:05:19;;;;;;;2.75;0.60;;;3.30;75.50;;;;;;5014557;28;20052;-70
2021/04/07 04:07:45;;;;;;;1.23;0.50;;;3.30;75.60;;;;;;5015771;28;20046;-71
2021/04/07 04:10:12;;;;;;;2.63;0.70;;;3.30;75.60;;;;;;5015197;28;20042;-70
2021/04/07 04:12:37;;;;;;;1.40;0.40;;;3.30;75.50;;;;;;5014121;28;20045;-69
2021/04/07 04:15:05;;;;;;;2.28;0.52;;;3.30;75.60;;;;;;5014992;28;20116;-70
2021/04/07 04:17:30;;;;;;;1.40;0.40;;;3.30;75.80;;;;;;5012714;28;20121;-69
2021/04/07 04:19:56;;;;;;;1.55;0.60;;;3.30;75.50;;;;;;5013240;28;20076;-69
2021/04/07 04:22:22;;;;;;;2.95;0.60;;;3.30;75.60;;;;;;5015165;28;20050;-70
2021/04/07 04:24:48;;;;;;;0.95;0.57;;;3.20;75.50;;;;;;5015043;28;20510;-71
2021/04/07 04:27:13;;;;;;;3.00;0.65;;;3.30;75.50;;;;;;5015273;28;20045;-70
2021/04/07 04:29:39;;;;;;;1.27;0.50;;;3.30;75.50;;;;;;5015776;28;20038;-70
2021/04/07 04:32:07;;;;;;;2.08;0.60;;;3.30;75.50;;;;;;5014475;28;20070;-70
2021/04/07 04:34:33;;;;;;;0.60;0.47;;;3.30;75.70;;;;;;5015606;28;20049;-70
2021/04/07 04:36:59;;;;;;;2.70;1.02;;;3.30;75.70;;;;;;5014868;28;20054;-70
2021/04/07 04:39:25;;;;;;;2.78;0.70;;;3.30;76.50;;;;;;5016468;28;20061;-69
2021/04/07 04:41:51;;;;;;;2.78;0.85;;;3.30;75.80;;;;;;5014762;28;20050;-69
2021/04/07 04:44:18;;;;;;;1.50;0.70;;;3.30;75.70;;;;;;5015612;28;20044;-69
2021/04/07 04:46:44;;;;;;;2.42;0.85;;;3.30;75.70;;;;;;5015664;28;20117;-69
2021/04/07 04:49:10;;;;;;;2.03;1.10;;;3.20;75.80;;;;;;5014174;28;20045;-68
2021/04/07 04:51:36;;;;;;;1.85;1.08;;;3.30;75.80;;;;;;5016231;28;20045;-69
2021/04/07 04:54:02;;;;;;;2.70;0.90;;;3.30;75.90;;;;;;4997996;28;20041;-70
2021/04/07 04:56:27;;;;;;;2.33;0.77;;;3.30;76.00;;;;;;5014536;28;20042;-69
2021/04/07 04:58:53;;;;;;;1.70;0.70;;;3.30;76.00;;;;;;5015544;28;20054;-70
2021/04/07 05:01:19;;;;;;;2.72;1.05;;;3.30;76.00;;;;;;5015562;28;20053;-69
2021/04/07 05:03:45;;;;;;;3.03;0.75;;;3.30;75.90;;;;;;5014372;28;20046;-68
2021/04/07 05:06:10;;;;;;;2.83;0.77;;;3.40;76.10;;;;;;5015043;28;20165;-70
2021/04/07 05:08:36;;;;;;;2.15;0.90;;;3.30;76.00;;;;;;5014106;28;20121;-69
2021/04/07 05:11:02;;;;;;;3.00;1.00;;;3.40;76.10;;;;;;5014810;28;20046;-70
2021/04/07 05:13:28;;;;;;;1.25;0.75;;;3.30;76.10;;;;;;5015619;28;20049;-69
2021/04/07 05:15:53;;;;;;;1.73;1.08;;;3.40;76.00;;;;;;5014628;28;20038;-70
2021/04/07 05:18:21;;;;;;;3.17;1.15;;;3.40;76.20;;;;;;5012479;28;20509;-70
2021/04/07 05:20:47;;;;;;;1.90;1.00;;;3.40;76.20;;;;;;5012902;28;20132;-70
2021/04/07 05:23:13;;;;;;;2.40;1.10;;;3.40;76.20;;;;;;5012272;28;20171;-70
2021/04/07 05:25:38;;;;;;;3.10;0.90;;;3.40;76.40;;;;;;5012117;28;20037;-70
2021/04/07 05:28:07;;;;;;;2.30;1.20;;;3.40;76.40;;;;;;4994482;28;20139;-70
2021/04/07 05:33:19;;;;;;;3.08;1.42;;;3.40;76.40;;;;;;5012246;28;20050;-70
2021/04/07 05:35:45;;;;;;;2.05;0.93;;;3.40;76.30;;;;;;5012940;28;20391;-69
2021/04/07 05:38:11;;;;;;;3.47;1.42;;;3.50;76.40;;;;;;5011788;28;20140;-70
2021/04/07 05:40:37;;;;;;;3.70;1.52;;;3.40;76.40;;;;;;5012771;28;20042;-69
2021/04/07 05:43:03;;;;;;;4.78;1.75;;;3.40;76.50;;;;;;5011836;28;20050;-70
2021/04/07 05:45:29;;;;;;;4.15;1.27;;;3.50;76.70;;;;;;5012481;28;20469;-69
2021/04/07 05:47:55;;;;;;;3.40;1.50;;;3.50;76.60;;;;;;5011345;28;20482;-69
2021/04/07 05:50:21;;;;;;;7.65;2.10;;;3.50;76.80;;;;;;5010747;28;20082;-69
2021/04/07 05:52:51;;;;;;;3.40;1.58;;;3.50;76.90;;;;;;5011680;28;20042;-69
2021/04/07 05:55:18;;;;;;;3.78;1.85;;;3.50;76.90;;;;;;5010442;28;20098;-69
2021/04/07 05:57:44;;;;;;;5.50;1.67;;;3.50;76.90;;;;;;5011287;28;20137;-71
2021/04/07 06:00:10;;;;;;;4.38;1.60;;;3.50;76.90;;;;;;5010339;28;20448;-70
2021/04/07 06:02:36;;;;;;;5.50;1.83;;;3.50;77.00;;;;;;5012490;28;20390;-71
2021/04/07 06:05:03;;;;;;;3.13;1.50;;;3.50;76.90;;;;;;5011322;28;20050;-71
2021/04/07 06:07:29;;;;;;;3.05;1.48;;;3.60;76.90;;;;;;5010758;28;20053;-70
2021/04/07 06:09:55;;;;;;;3.90;1.52;;;3.60;76.90;;;;;;5011188;28;20137;-70
2021/04/07 06:12:21;;;;;;;4.53;1.70;;;3.60;77.10;;;;;;5011277;28;20062;-70
2021/04/07 06:14:47;;;;;;;3.47;1.75;;;3.60;77.10;;;;;;5011941;28;20477;-70
2021/04/07 06:17:12;;;;;;;3.85;1.50;;;3.60;77.10;;;;;;5013705;28;20046;-71
2021/04/07 06:19:38;;;;;;;3.90;1.70;;;3.70;77.30;;;;;;5019570;28;20049;-70
2021/04/07 06:22:04;;;;;;;3.63;1.73;;;3.70;77.40;;;;;;5019697;28;20046;-70
2021/04/07 06:24:30;;;;;;;3.30;1.70;;;3.70;77.20;;;;;;5023140;28;20060;-70
2021/04/07 06:26:55;;;;;;;3.25;1.45;;;3.70;77.40;;;;;;5021158;28;20443;-71
2021/04/07 06:29:21;;;;;;;5.63;1.98;;;3.80;77.60;;;;;;5020305;28;20129;-70
2021/04/07 06:31:47;;;;;;;3.35;1.85;;;3.80;77.60;;;;;;5023383;28;20046;-71
2021/04/07 06:34:12;;;;;;;2.13;1.48;;;3.80;77.70;;;;;;5020560;28;20509;-70
2021/04/07 06:36:38;;;;;;;4.55;1.70;;;3.80;77.50;;;;;;5021085;28;20037;-69
2021/04/07 06:39:04;;;;;;;3.08;1.48;;;3.90;77.90;;;;;;5021338;28;20037;-69
2021/04/07 06:41:30;;;;;;;4.43;1.88;;;3.90;77.80;;;;;;5027098;28;20053;-69
2021/04/07 06:43:56;;;;;;;5.63;1.90;;;3.90;77.90;;;;;;5010285;28;20046;-69
2021/04/07 06:46:21;;;;;;;3.55;1.65;;;3.90;78.00;;;;;;5006622;28;20140;-69
2021/04/07 06:48:48;;;;;;;4.78;1.67;;;4.00;78.00;;;;;;5015771;28;20046;-69
2021/04/07 06:51:16;;;;;;;3.08;1.90;;;4.00;78.00;;;;;;5014428;28;20049;-70
2021/04/07 06:53:42;;;;;;;4.82;1.95;;;4.00;77.90;;;;;;5011835;28;20384;-69
2021/04/07 06:56:08;;;;;;;4.53;1.48;;;4.10;78.00;;;;;;5027632;28;20156;-70
2021/04/07 06:58:34;;;;;;;5.32;1.58;;;4.10;78.10;;;;;;5030671;28;20045;-69
2021/04/07 07:01:00;;;;;;;4.40;1.90;;;4.20;78.20;;;;;;5020972;28;20085;-69
2021/04/07 07:03:26;;;;;;;2.90;1.50;;;4.20;78.30;;;;;;5017505;28;20053;-69
2021/04/07 07:05:54;;;;;;;4.65;2.10;;;4.20;78.30;;;;;;5022532;28;20467;-70
2021/04/07 07:08:20;;;;;;;4.07;1.70;;;4.20;78.30;;;;;;5022425;28;20083;-70
2021/04/07 07:10:48;;;;;;;5.50;1.77;;;4.20;78.40;;;;;;5018224;28;20081;-70
2021/04/07 07:13:20;;;;;;;5.97;2.60;;;4.30;78.40;;;;;;5024927;28;20510;-70
2021/04/07 07:15:46;;;;;;;;;;;4.30;78.40;;;;;;5023416;28;20067;-70
2021/04/07 07:18:27;;;;;;;4.80;1.73;;;4.30;78.80;;;;;;5020168;28;20405;-70
2021/04/07 07:20:54;;;;;;;5.95;1.90;;;4.40;78.20;;;;;;5013139;28;20088;-70
2021/04/07 07:23:31;;;;;;;5.53;1.92;;;4.40;78.10;;;;;;5021299;28;20065;-71
2021/04/07 07:26:02;;;;;;;7.45;1.55;;;4.40;78.40;;;;;;5020743;28;20490;-74
2021/04/07 07:28:49;;;;;;;5.88;2.08;;;4.50;78.50;;;;;;5025115;28;20245;-71
2021/04/07 07:31:19;;;;;;;8.15;2.00;;;4.50;78.40;;;;;;5015093;28;20056;-71
2021/04/07 07:33:45;;;;;;;7.00;2.10;;;4.50;78.40;;;;;;5029381;28;20057;-70
2021/04/07 07:36:11;;;;;;;8.38;2.63;;;4.50;78.40;;;;;;5037718;28;20045;-71
2021/04/07 07:38:47;;;;;;;6.28;1.98;;;4.60;78.80;;;;;;5028089;28;20375;-71
2021/04/07 07:41:13;;;;;;;9.00;2.83;;;4.70;78.90;;;;;;5037317;28;20398;-72
2021/04/07 07:43:43;;;;;;;10.40;1.95;;;4.80;79.10;;;;;;5032486;28;20068;-72
2021/04/07 07:46:11;;;;;;;9.57;2.30;;;4.80;79.20;;;;;;5030645;28;20050;-71
2021/04/07 07:48:38;;;;;;;6.53;1.50;;;4.90;79.20;;;;;;5033555;28;20502;-72
2021/04/07 07:51:15;;;;;;;9.68;2.28;;;5.00;79.90;;;;;;5025176;28;20069;-70
2021/04/07 07:53:43;;;;;;;9.50;2.70;;;5.20;80.30;;;;;;5041098;28;20045;-74
2021/04/07 07:56:13;;;;;;;8.65;2.35;;;5.30;79.70;;;;;;5039735;28;20041;-71
2021/04/07 07:58:47;;;;;;;8.55;2.08;;;5.30;79.50;;;;;;5038930;28;20049;-72
2021/04/07 08:01:14;;;;;;;14.95;2.08;;;5.40;79.50;;;;;;5033413;28;20044;-76
2021/04/07 08:03:44;;;;;;;9.68;2.03;;;5.50;79.60;;;;;;5037781;28;20045;-72
2021/04/07 08:06:10;;;;;;;9.90;2.80;;;5.50;79.50;;;;;;5032185;28;20046;-73
2021/04/07 08:08:36;;;;;;;7.57;2.85;;;5.50;79.40;;;;;;5037040;28;20143;-74
2021/04/07 08:11:03;;;;;;;9.48;2.10;;;5.60;79.70;;;;;;5023374;28;20057;-73
2021/04/07 08:13:32;;;;;;;11.45;2.30;;;5.70;80.10;;;;;;5018757;28;20390;-72
2021/04/07 08:15:58;;;;;;;7.63;2.03;;;5.70;80.10;;;;;;5021916;28;20037;-72
2021/04/07 08:18:25;;;;;;;5.63;1.58;;;5.80;80.20;;;;;;5045383;28;20044;-73
2021/04/07 08:20:51;;;;;;;6.32;1.55;;;5.90;80.40;;;;;;5039590;28;20045;-73
2021/04/07 08:23:17;;;;;;;8.20;1.52;;;5.90;79.70;;;;;;5019935;28;20447;-72
2021/04/07 08:25:43;;;;;;;7.03;1.40;;;6.00;79.80;;;;;;5019878;28;20561;-72
2021/04/07 08:28:08;;;;;;;8.88;1.73;;;6.00;79.80;;;;;;5035088;28;20041;-71
2021/04/07 08:30:34;;;;;;;6.05;1.20;;;6.00;80.00;;;;;;5018157;28;20045;-72
2021/04/07 08:33:00;;;;;;;4.45;1.02;;;6.00;80.10;;;;;;5034731;28;20116;-71
2021/04/07 08:35:26;;;;;;;8.50;1.40;;;6.10;80.20;;;;;;5038442;28;20064;-71
2021/04/07 08:37:56;;;;;;;6.95;1.30;;;6.00;80.30;;;;;;5034614;28;20049;-72
2021/04/07 08:40:23;;;;;;;8.65;1.25;;;6.20;80.60;;;;;;5035219;28;20504;-72
2021/04/07 08:42:48;;;;;;;5.53;1.30;;;6.20;81.50;;;;;;5037086;28;20053;-72
2021/04/07 08:45:14;;;;;;;6.30;1.20;;;6.30;80.90;;;;;;5016903;28;20053;-73
2021/04/07 08:47:52;;;;;;;11.95;1.77;;;6.40;80.70;;;;;;5033286;28;20029;-74
2021/04/07 08:50:17;;;;;;;7.80;1.40;;;6.60;81.20;;;;;;5033306;28;20132;-73
2021/04/07 08:52:48;;;;;;;4.78;1.23;;;6.70;80.60;;;;;;5031199;28;20437;-74
2021/04/07 08:55:26;;;;;;;2.97;0.77;;;6.70;80.10;;;;;;5013787;28;20037;-73
2021/04/07 08:58:03;;;;;;;5.60;0.90;;;6.70;79.40;;;;;;5030528;28;20061;-74
2021/04/07 09:00:30;;;;;;;5.55;0.88;;;6.70;79.40;;;;;;5012442;28;20045;-73
2021/04/07 09:03:11;;;;;;;2.50;0.80;;;6.70;79.20;;;;;;5012950;28;20478;-73
2021/04/07 09:05:44;;;;;;;4.97;1.70;;;6.70;79.60;;;;;;5031368;28;20501;-74
2021/04/07 09:08:17;;;;;;;7.95;1.77;;;6.70;79.60;;;;;;5032474;28;20453;-74
2021/04/07 09:10:51;;;;;;;8.68;1.90;;;6.70;79.40;;;;;;5031491;28;20049;-73
2021/04/07 09:13:22;;;;;;;9.07;2.00;;;6.70;79.20;;;;;;5030335;28;20058;-74
2021/04/07 09:15:55;;;;;;;10.85;2.78;;;6.70;79.20;;;;;;5031692;28;20042;-74
2021/04/07 09:18:53;;;;;;;11.30;2.33;;;6.80;79.50;;;;;;5032277;28;20111;-71
2021/04/07 09:21:20;;;;;;;10.95;2.92;;;7.00;81.60;;;;;;4986805;28;20049;-74
2021/04/07 09:23:54;;;;;;;10.77;2.75;;;7.20;79.70;;;;;;5031271;28;20057;-73
2021/04/07 09:26:22;;;;;;;15.00;4.05;;;7.30;78.80;;;;;;5031672;28;20050;-73
2021/04/07 09:28:48;;;;;;;14.43;3.65;;;7.30;78.20;;;;;;5031444;28;20042;-72
2021/04/07 09:31:18;;;;;;;13.20;3.25;;;7.30;78.00;;;;;;5031800;28;20049;-72
2021/04/07 09:33:46;;;;;;;12.13;2.63;;;7.40;78.20;;;;;;5034589;28;20105;-72
2021/04/07 09:36:13;;;;;;;13.52;3.42;;;7.40;78.00;;;;;;5010881;28;20073;-73
2021/04/07 09:38:46;;;;;;;16.27;3.67;;;7.40;78.00;;;;;;5030495;28;20045;-74
2021/04/07 09:41:13;;;;;;;10.02;2.78;;;7.40;78.00;;;;;;5030416;28;20046;-74
2021/04/07 09:43:39;;;;;;;15.32;3.22;;;7.50;78.00;;;;;;5012711;28;20049;-74
2021/04/07 09:46:06;;;;;;;15.27;3.85;;;7.50;77.50;;;;;;5031466;28;20053;-73
2021/04/07 09:48:39;;;;;;;13.73;3.03;;;7.60;77.20;;;;;;5030381;28;20131;-73
2021/04/07 09:51:18;;;;;;;13.23;3.40;;;7.60;76.90;;;;;;5029767;28;20041;-73
2021/04/07 09:53:44;;;;;;;16.90;3.50;;;7.70;77.00;;;;;;5029377;28;20390;-74
2021/04/07 09:56:09;;;;;;;13.57;2.80;;;7.70;76.50;;;;;;5030499;28;20033;-74
2021/04/07 09:58:48;;;;;;;12.93;2.70;;;7.70;76.20;;;;;;5009907;28;20367;-74
2021/04/07 10:01:15;;;;;;;10.63;2.65;;;7.80;75.90;;;;;;5030289;28;20045;-73
2021/04/07 10:03:47;;;;;;;14.35;3.47;;;7.80;75.70;;;;;;5030221;28;20496;-73
2021/04/07 10:06:25;;;;;;;15.25;3.63;;;7.90;75.60;;;;;;5028586;28;20037;-75
2021/04/07 10:09:08;;;;;;;13.15;3.35;;;8.00;75.30;;;;;;5023333;28;20045;-74
2021/04/07 10:11:41;;;;;;;12.18;2.45;;;8.00;74.90;;;;;;5023179;28;20046;-73
2021/04/07 10:14:07;;;;;;;;;;;8.10;74.50;;;;;;5019840;28;20179;-72
2021/04/07 10:16:40;;;;;;;12.63;2.72;;;8.10;72.70;;;;;;5019858;28;19928;-69
2021/04/07 10:19:06;;;;;;;12.55;2.70;;;8.20;73.00;;;;;;5013277;28;20046;-68
2021/04/07 10:21:32;;;;;;;13.02;2.55;;;8.20;72.80;;;;;;4992620;28;20049;-68
2021/04/07 10:23:59;;;;;;;10.70;2.50;;;8.20;72.60;;;;;;5011575;28;20054;-69
2021/04/07 10:26:25;;;;;;;10.32;2.05;;;8.30;72.60;;;;;;5010597;28;20124;-68
2021/04/07 10:28:58;;;;;;;11.25;2.30;;;8.50;72.80;;;;;;5009702;28;20659;-68
2021/04/07 10:31:24;;;;;;;11.63;2.85;;;8.60;71.30;;;;;;5004426;28;20050;-67
2021/04/07 10:34:07;;;;;;;11.85;2.65;;;8.60;70.70;;;;;;5008064;28;20049;-69
2021/04/07 10:36:34;;;;;;;14.05;2.78;;;8.50;70.00;;;;;;5009109;28;20127;-72
2021/04/07 10:39:20;;;;;;;15.95;2.88;;;8.60;71.00;;;;;;5011622;28;20042;-66
2021/04/07 10:41:50;;;;;;;13.32;3.50;;;8.60;70.40;;;;;;5009002;28;20064;-72
2021/04/07 10:44:28;;;;;;;12.10;2.53;;;8.50;70.50;;;;;;5020870;28;20038;-71
2021/04/07 10:46:54;;;;;;;13.32;2.55;;;8.50;70.80;;;;;;5014936;28;20470;-70
2021/04/07 10:49:21;;;;;;;9.27;2.08;;;8.40;71.00;;;;;;5020689;28;20045;-71
2021/04/07 10:51:59;;;;;;;11.10;2.53;;;8.30;71.30;;;;;;5021607;28;20046;-71
2021/04/07 10:54:26;;;;;;;13.27;3.60;;;8.40;71.80;;;;;;5019816;28;20038;-71
2021/04/07 10:57:28;;;;;;;13.93;2.85;;;8.40;72.10;;;;;;5013759;28;20124;-70
2021/04/07 10:59:55;;;;;;;16.33;3.60;;;8.50;72.70;;;;;;5025704;28;20669;-70
2021/04/07 11:02:20;;;;;;;12.05;3.00;;;8.60;72.60;;;;;;5010416;28;20133;-70
2021/04/07 11:04:46;;;;;;;16.30;3.55;;;8.60;72.50;;;;;;5012538;28;20048;-70
2021/04/07 11:07:12;;;;;;;10.25;2.47;;;8.60;72.30;;;;;;5030058;28;20382;-70
2021/04/07 11:09:51;;;;;;;10.80;2.58;;;8.50;72.10;;;;;;5029184;28;20442;-71
2021/04/07 11:12:21;;;;;;;12.05;2.60;;;8.50;72.10;;;;;;5030601;28;20076;-69
2021/04/07 11:14:53;;;;;;;12.75;2.70;;;8.50;72.30;;;;;;5013332;28;20486;-70
2021/04/07 11:17:19;;;;;;;10.77;2.90;;;8.50;72.40;;;;;;5029811;28;20038;-69
2021/04/07 11:19:45;;;;;;;16.58;3.05;;;8.40;72.30;;;;;;5029027;28;20480;-70
2021/04/07 11:22:11;;;;;;;13.63;2.80;;;8.50;72.30;;;;;;5013350;28;20056;-70
2021/04/07 11:24:37;;;;;;;12.25;2.70;;;8.50;72.60;;;;;;5030638;28;20045;-71
2021/04/07 11:27:03;;;;;;;9.13;3.17;;;8.60;72.50;;;;;;5033657;28;20053;-70
2021/04/07 11:29:29;;;;;;;12.75;3.60;;;8.70;73.50;;;;;;5014009;28;20050;-69
2021/04/07 11:31:58;;;;;;;12.38;2.83;;;8.70;72.30;;;;;;5014850;28;20112;-69
2021/04/07 11:34:33;;;;;;;13.20;3.10;;;8.80;72.40;;;;;;5015491;28;20122;-69
2021/04/07 11:37:11;;;;;;;11.82;2.92;;;8.90;73.00;;;;;;5014575;28;20705;-70
2021/04/07 11:39:48;;;;;;;16.02;3.38;;;8.90;71.90;;;;;;5014779;28;20379;-71
2021/04/07 11:45:04;;;;;;;10.70;2.53;;;9.10;71.70;;;;;;5008416;28;20130;-70
2021/04/07 11:47:30;;;;;;;11.77;2.75;;;9.10;71.60;;;;;;5024713;28;20371;-70
2021/04/07 11:49:56;;;;;;;13.95;2.83;;;9.20;71.30;;;;;;5022460;28;20053;-70
2021/04/07 11:52:21;;;;;;;7.88;2.03;;;9.20;70.50;;;;;;5023926;28;20046;-69
2021/04/07 11:54:47;;;;;;;12.63;2.22;;;9.00;69.60;;;;;;5025032;28;20050;-70
2021/04/07 11:57:13;;;;;;;8.82;2.05;;;8.90;69.60;;;;;;5023310;28;20037;-69
2021/04/07 11:59:38;;;;;;;10.60;2.50;;;8.70;69.60;;;;;;5023720;28;20087;-72
2021/04/07 12:02:05;;;;;;;8.98;1.88;;;8.60;69.60;;;;;;5017271;28;20077;-70
2021/04/07 12:04:32;;;;;;;9.65;2.20;;;8.60;69.70;;;;;;5013546;28;20069;-71
2021/04/07 12:06:58;;;;;;;12.23;2.20;;;8.60;69.80;;;;;;5011593;28;20046;-69
2021/04/07 12:09:24;;;;;;;11.98;2.83;;;8.60;69.90;;;;;;5011752;28;20042;-69
2021/04/07 12:11:50;;;;;;;12.00;3.97;;;8.70;70.30;;;;;;5011695;28;20046;-69
2021/04/07 12:14:15;;;;;;;12.68;2.70;;;8.70;70.40;;;;;;4996715;28;20104;-70
2021/04/07 12:16:41;;;;;;;13.68;3.25;;;8.80;70.40;;;;;;5013521;28;20053;-71
2021/04/07 12:19:08;;;;;;;11.68;2.30;;;8.80;70.20;;;;;;5013931;28;20049;-70
2021/04/07 12:21:33;;;;;;;11.80;2.80;;;8.70;69.40;;;;;;4997845;28;20112;-69
2021/04/07 12:24:01;;;;;;;6.60;1.77;;;8.50;68.80;;;;;;5013865;28;20081;-70
2021/04/07 12:26:27;;;;;;;7.88;1.67;;;8.40;69.00;;;;;;5014441;28;20466;-69
2021/04/07 12:28:53;;;;;;;9.50;2.40;;;8.20;69.00;;;;;;5015168;28;20050;-68
2021/04/07 12:31:20;;;;;;;9.10;1.90;;;8.20;69.30;;;;;;5015211;28;20073;-69
2021/04/07 12:34:03;;;;;;;5.60;1.30;;;8.20;69.60;;;;;;4997426;28;20129;-72
2021/04/07 12:36:31;;;;;;;7.60;1.35;;;8.20;69.80;;;;;;5014080;28;20081;-71
2021/04/07 12:38:59;;;;;;;8.05;1.83;;;8.30;70.10;;;;;;5013457;28;20076;-69
2021/04/07 12:41:35;;;;;;;8.57;1.85;;;8.40;70.50;;;;;;5013639;28;20038;-70
2021/04/07 12:44:01;;;;;;;7.80;1.63;;;8.50;70.60;;;;;;5012972;28;20121;-70
2021/04/07 12:46:27;;;;;;;8.95;1.40;;;8.60;70.50;;;;;;5013311;28;20121;-70
2021/04/07 12:48:53;;;;;;;10.27;2.15;;;8.70;70.30;;;;;;4996647;28;20046;-70
2021/04/07 12:51:19;;;;;;;8.32;2.17;;;8.90;70.40;;;;;;5014332;28;20057;-69
2021/04/07 12:53:50;;;;;;;8.38;2.15;;;9.00;70.40;;;;;;5015475;28;20056;-71
2021/04/07 12:56:16;;;;;;;8.45;2.13;;;9.30;70.30;;;;;;5016446;28;20045;-66
2021/04/07 12:58:42;;;;;;;12.70;2.20;;;9.40;69.60;;;;;;5018363;28;20061;-69
2021/04/07 13:01:08;;;;;;;12.30;2.42;;;9.50;69.10;;;;;;5024879;28;20038;-69
2021/04/07 13:03:35;;;;;;;8.95;2.10;;;9.50;68.80;;;;;;5021878;28;20050;-70